Terminal Aerodrome Forecast
Issued by NWS

Current Version | Previous Version | Graphics & Text | Print | Product List | Glossary On
Versions: 1 2 3 4 5 6 7 8 9 10 11 12 13 14 15
000
FTUS41 KILN 210538
TAFLUK
TAF
KLUK 210538Z 2106/2206 00000KT P6SM BKN250
      TEMPO 2109/2111 4SM BR
     FM211300 21006KT P6SM SCT050 BKN250
     FM220100 VRB03KT P6SM SCT250=

USA.gov is the U.S. government's official web portal to all federal, state and local government web resources and services.